sensor_id;sensor_type;location;lat;lon;timestamp;temperature;humidity
7427;DHT22;3755;59.316;18.092;2023-03-01T00:01:27;3.30;99.90
7427;DHT22;3755;59.316;18.092;2023-03-01T00:03:55;3.30;99.90
7427;DHT22;3755;59.316;18.092;2023-03-01T00:06:23;3.30;99.90
7427;DHT22;3755;59.316;18.092;2023-03-01T00:08:50;3.20;99.90
7427;DHT22;3755;59.316;18.092;2023-03-01T00:11:20;3.20;99.90
7427;DHT22;3755;59.316;18.092;2023-03-01T00:13:51;3.10;99.90
7427;DHT22;3755;59.316;18.092;2023-03-01T00:16:20;3.10;99.90
7427;DHT22;3755;59.316;18.092;2023-03-01T00:18:48;3.00;99.90
7427;DHT22;3755;59.316;18.092;2023-03-01T00:21:17;3.00;99.90
7427;DHT22;3755;59.316;18.092;2023-03-01T00:23:45;3.00;99.90
7427;DHT22;3755;59.316;18.092;2023-03-01T00:26:15;2.90;99.90
7427;DHT22;3755;59.316;18.092;2023-03-01T00:28:43;2.90;99.90
7427;DHT22;3755;59.316;18.092;2023-03-01T00:31:17;2.90;99.90
7427;DHT22;3755;59.316;18.092;2023-03-01T00:33:46;2.90;99.90
7427;DHT22;3755;59.316;18.092;2023-03-01T00:36:15;2.80;99.90
7427;DHT22;3755;59.316;18.092;2023-03-01T00:38:44;2.80;99.90
7427;DHT22;3755;59.316;18.092;2023-03-01T00:41:13;3.00;99.90
7427;DHT22;3755;59.316;18.092;2023-03-01T00:43:41;2.80;99.90
7427;DHT22;3755;59.316;18.092;2023-03-01T00:46:09;2.80;99.90
7427;DHT22;3755;59.316;18.092;2023-03-01T00:48:38;2.80;99.90
7427;DHT22;3755;59.316;18.092;2023-03-01T00:51:07;2.80;99.90
7427;DHT22;3755;59.316;18.092;2023-03-01T00:53:34;2.70;99.90
7427;DHT22;3755;59.316;18.092;2023-03-01T00:56:03;2.70;99.90
7427;DHT22;3755;59.316;18.092;2023-03-01T00:58:31;2.70;99.90
7427;DHT22;3755;59.316;18.092;2023-03-01T01:00:58;2.70;99.90
7427;DHT22;3755;59.316;18.092;2023-03-01T01:03:25;2.60;99.90
7427;DHT22;3755;59.316;18.092;2023-03-01T01:05:54;2.60;99.90
7427;DHT22;3755;59.316;18.092;2023-03-01T01:08:22;2.60;99.90
7427;DHT22;3755;59.316;18.092;2023-03-01T01:10:49;2.60;99.90
7427;DHT22;3755;59.316;18.092;2023-03-01T01:13:16;2.50;99.90
7427;DHT22;3755;59.316;18.092;2023-03-01T01:15:43;2.50;99.90
7427;DHT22;3755;59.316;18.092;2023-03-01T01:18:11;2.50;99.90
7427;DHT22;3755;59.316;18.092;2023-03-01T01:20:38;2.50;99.90
7427;DHT22;3755;59.316;18.092;2023-03-01T01:23:07;2.50;99.90
7427;DHT22;3755;59.316;18.092;2023-03-01T01:25:36;2.40;99.90
7427;DHT22;3755;59.316;18.092;2023-03-01T01:28:03;2.40;99.90
7427;DHT22;3755;59.316;18.092;2023-03-01T01:30:30;2.40;99.90
7427;DHT22;3755;59.316;18.092;2023-03-01T01:32:58;2.40;99.90
7427;DHT22;3755;59.316;18.092;2023-03-01T01:35:25;2.30;99.90
7427;DHT22;3755;59.316;18.092;2023-03-01T01:37:52;2.30;99.90
7427;DHT22;3755;59.316;18.092;2023-03-01T01:40:20;2.40;99.90
7427;DHT22;3755;59.316;18.092;2023-03-01T01:42:48;2.40;99.90
7427;DHT22;3755;59.316;18.092;2023-03-01T01:45:39;2.40;99.90
7427;DHT22;3755;59.316;18.092;2023-03-01T01:48:12;2.30;99.90
7427;DHT22;3755;59.316;18.092;2023-03-01T01:50:41;2.30;99.90
7427;DHT22;3755;59.316;18.092;2023-03-01T01:53:14;2.30;99.90
7427;DHT22;3755;59.316;18.092;2023-03-01T01:55:46;2.30;99.90
7427;DHT22;3755;59.316;18.092;2023-03-01T01:58:17;2.30;99.90
7427;DHT22;3755;59.316;18.092;2023-03-01T02:00:44;2.30;99.90
7427;DHT22;3755;59.316;18.092;2023-03-01T02:03:14;2.20;99.90
7427;DHT22;3755;59.316;18.092;2023-03-01T02:05:47;2.20;99.90
7427;DHT22;3755;59.316;18.092;2023-03-01T02:08:19;2.20;99.90
7427;DHT22;3755;59.316;18.092;2023-03-01T02:10:49;2.20;99.90
7427;DHT22;3755;59.316;18.092;2023-03-01T02:13:17;2.20;99.90
7427;DHT22;3755;59.316;18.092;2023-03-01T02:15:44;2.20;99.90
7427;DHT22;3755;59.316;18.092;2023-03-01T02:18:14;2.10;99.90
7427;DHT22;3755;59.316;18.092;2023-03-01T02:20:50;2.10;99.90
7427;DHT22;3755;59.316;18.092;2023-03-01T02:23:19;2.10;99.90
7427;DHT22;3755;59.316;18.092;2023-03-01T02:25:53;2.10;99.90
7427;DHT22;3755;59.316;18.092;2023-03-01T02:28:31;2.10;99.90
7427;DHT22;3755;59.316;18.092;2023-03-01T02:30:58;2.10;99.90
7427;DHT22;3755;59.316;18.092;2023-03-01T02:33:44;2.10;99.90
7427;DHT22;3755;59.316;18.092;2023-03-01T02:36:18;2.10;99.90
7427;DHT22;3755;59.316;18.092;2023-03-01T02:38:47;2.10;99.90
7427;DHT22;3755;59.316;18.092;2023-03-01T02:41:16;2.00;99.90
7427;DHT22;3755;59.316;18.092;2023-03-01T02:43:46;1.90;99.90
7427;DHT22;3755;59.316;18.092;2023-03-01T02:46:16;1.90;99.90
7427;DHT22;3755;59.316;18.092;2023-03-01T02:48:46;1.90;99.90
7427;DHT22;3755;59.316;18.092;2023-03-01T02:51:40;1.80;99.90
7427;DHT22;3755;59.316;18.092;2023-03-01T02:54:16;1.80;99.90
7427;DHT22;3755;59.316;18.092;2023-03-01T02:56:45;1.70;99.90
7427;DHT22;3755;59.316;18.092;2023-03-01T02:59:17;1.70;99.90
7427;DHT22;3755;59.316;18.092;2023-03-01T03:01:46;1.70;99.90
7427;DHT22;3755;59.316;18.092;2023-03-01T03:04:15;1.60;99.90
7427;DHT22;3755;59.316;18.092;2023-03-01T03:06:44;1.60;99.90
7427;DHT22;3755;59.316;18.092;2023-03-01T03:09:12;1.60;99.90
7427;DHT22;3755;59.316;18.092;2023-03-01T03:11:39;1.50;99.90
7427;DHT22;3755;59.316;18.092;2023-03-01T03:14:09;1.50;99.90
7427;DHT22;3755;59.316;18.092;2023-03-01T03:16:41;1.50;99.90
7427;DHT22;3755;59.316;18.092;2023-03-01T03:19:09;1.50;99.90
7427;DHT22;3755;59.316;18.092;2023-03-01T03:21:36;1.40;99.90
7427;DHT22;3755;59.316;18.092;2023-03-01T03:24:04;1.40;99.90
7427;DHT22;3755;59.316;18.092;2023-03-01T03:26:32;1.40;99.90
7427;DHT22;3755;59.316;18.092;2023-03-01T03:28:59;1.40;99.90
7427;DHT22;3755;59.316;18.092;2023-03-01T03:31:27;1.40;99.90
7427;DHT22;3755;59.316;18.092;2023-03-01T03:33:56;1.40;99.90
7427;DHT22;3755;59.316;18.092;2023-03-01T03:36:24;1.30;99.90
7427;DHT22;3755;59.316;18.092;2023-03-01T03:38:52;1.30;99.90
7427;DHT22;3755;59.316;18.092;2023-03-01T03:41:19;1.30;99.90
7427;DHT22;3755;59.316;18.092;2023-03-01T03:43:46;1.30;99.90
7427;DHT22;3755;59.316;18.092;2023-03-01T03:46:14;1.30;99.90
7427;DHT22;3755;59.316;18.092;2023-03-01T03:48:44;1.20;99.90
7427;DHT22;3755;59.316;18.092;2023-03-01T03:51:14;1.20;99.90
7427;DHT22;3755;59.316;18.092;2023-03-01T03:53:44;1.20;99.90
7427;DHT22;3755;59.316;18.092;2023-03-01T03:56:11;1.10;99.90
7427;DHT22;3755;59.316;18.092;2023-03-01T03:58:39;1.20;99.90
7427;DHT22;3755;59.316;18.092;2023-03-01T04:01:06;1.10;99.90
7427;DHT22;3755;59.316;18.092;2023-03-01T04:03:34;1.10;99.90
7427;DHT22;3755;59.316;18.092;2023-03-01T04:06:02;1.10;99.90
7427;DHT22;3755;59.316;18.092;2023-03-01T04:08:31;1.10;99.90
7427;DHT22;3755;59.316;18.092;2023-03-01T04:11:00;1.10;99.90
7427;DHT22;3755;59.316;18.092;2023-03-01T04:13:49;1.10;99.90
7427;DHT22;3755;59.316;18.092;2023-03-01T04:16:17;1.00;99.90
7427;DHT22;3755;59.316;18.092;2023-03-01T04:18:44;1.00;99.90
7427;DHT22;3755;59.316;18.092;2023-03-01T04:21:12;0.90;99.90
7427;DHT22;3755;59.316;18.092;2023-03-01T04:23:40;0.90;99.90
7427;DHT22;3755;59.316;18.092;2023-03-01T04:26:08;0.90;99.90
7427;DHT22;3755;59.316;18.092;2023-03-01T04:28:37;0.80;99.90
7427;DHT22;3755;59.316;18.092;2023-03-01T04:31:07;0.80;99.90
7427;DHT22;3755;59.316;18.092;2023-03-01T04:33:40;0.80;99.90
7427;DHT22;3755;59.316;18.092;2023-03-01T04:36:08;0.70;99.90
7427;DHT22;3755;59.316;18.092;2023-03-01T04:38:36;0.70;99.90
7427;DHT22;3755;59.316;18.092;2023-03-01T04:41:06;0.70;99.90
7427;DHT22;3755;59.316;18.092;2023-03-01T04:43:34;0.70;99.90
7427;DHT22;3755;59.316;18.092;2023-03-01T04:46:02;0.70;99.90
7427;DHT22;3755;59.316;18.092;2023-03-01T04:48:31;0.70;99.90
7427;DHT22;3755;59.316;18.092;2023-03-01T04:50:59;0.70;99.90
7427;DHT22;3755;59.316;18.092;2023-03-01T04:53:29;0.70;99.90
7427;DHT22;3755;59.316;18.092;2023-03-01T04:55:57;0.70;99.90
7427;DHT22;3755;59.316;18.092;2023-03-01T04:58:27;0.70;99.90
7427;DHT22;3755;59.316;18.092;2023-03-01T05:00:55;0.70;99.90
7427;DHT22;3755;59.316;18.092;2023-03-01T05:03:22;0.70;99.90
7427;DHT22;3755;59.316;18.092;2023-03-01T05:05:51;0.70;99.90
7427;DHT22;3755;59.316;18.092;2023-03-01T05:08:19;0.70;99.90
7427;DHT22;3755;59.316;18.092;2023-03-01T05:10:49;0.70;99.90
7427;DHT22;3755;59.316;18.092;2023-03-01T05:13:16;0.70;99.90
7427;DHT22;3755;59.316;18.092;2023-03-01T05:15:54;0.70;99.90
7427;DHT22;3755;59.316;18.092;2023-03-01T05:18:21;0.70;99.90
7427;DHT22;3755;59.316;18.092;2023-03-01T05:20:51;0.70;99.90
7427;DHT22;3755;59.316;18.092;2023-03-01T05:23:21;0.70;99.90
7427;DHT22;3755;59.316;18.092;2023-03-01T05:25:49;0.70;99.90
7427;DHT22;3755;59.316;18.092;2023-03-01T05:28:19;0.70;99.90
7427;DHT22;3755;59.316;18.092;2023-03-01T05:30:48;0.70;99.90
7427;DHT22;3755;59.316;18.092;2023-03-01T05:33:17;0.70;99.90
7427;DHT22;3755;59.316;18.092;2023-03-01T05:35:45;0.60;99.90
7427;DHT22;3755;59.316;18.092;2023-03-01T05:38:15;0.60;99.90
7427;DHT22;3755;59.316;18.092;2023-03-01T05:40:47;0.50;99.90
7427;DHT22;3755;59.316;18.092;2023-03-01T05:43:16;0.50;99.90
7427;DHT22;3755;59.316;18.092;2023-03-01T05:45:44;0.50;99.90
7427;DHT22;3755;59.316;18.092;2023-03-01T05:48:13;0.40;99.90
7427;DHT22;3755;59.316;18.092;2023-03-01T05:50:42;0.50;99.90
7427;DHT22;3755;59.316;18.092;2023-03-01T05:53:13;0.40;99.90
7427;DHT22;3755;59.316;18.092;2023-03-01T05:55:41;0.40;99.90
7427;DHT22;3755;59.316;18.092;2023-03-01T05:58:11;0.50;99.90
7427;DHT22;3755;59.316;18.092;2023-03-01T06:00:40;0.50;99.90
7427;DHT22;3755;59.316;18.092;2023-03-01T06:03:09;0.50;99.90
7427;DHT22;3755;59.316;18.092;2023-03-01T06:05:38;0.60;99.90
7427;DHT22;3755;59.316;18.092;2023-03-01T06:08:07;0.60;99.90
7427;DHT22;3755;59.316;18.092;2023-03-01T06:10:34;0.50;99.90
7427;DHT22;3755;59.316;18.092;2023-03-01T06:13:02;0.50;99.90
7427;DHT22;3755;59.316;18.092;2023-03-01T06:15:29;0.50;99.90
7427;DHT22;3755;59.316;18.092;2023-03-01T06:17:56;0.40;99.90
7427;DHT22;3755;59.316;18.092;2023-03-01T06:20:26;0.40;99.90
7427;DHT22;3755;59.316;18.092;2023-03-01T06:22:56;0.40;99.90
7427;DHT22;3755;59.316;18.092;2023-03-01T06:25:25;0.40;99.90
7427;DHT22;3755;59.316;18.092;2023-03-01T06:27:54;0.40;99.90
7427;DHT22;3755;59.316;18.092;2023-03-01T06:30:23;0.40;99.90
7427;DHT22;3755;59.316;18.092;2023-03-01T06:32:51;0.40;99.90
7427;DHT22;3755;59.316;18.092;2023-03-01T06:35:27;0.50;99.90
7427;DHT22;3755;59.316;18.092;2023-03-01T06:38:11;0.60;99.90
7427;DHT22;3755;59.316;18.092;2023-03-01T06:40:42;0.60;99.90
7427;DHT22;3755;59.316;18.092;2023-03-01T06:43:24;0.60;99.90
7427;DHT22;3755;59.316;18.092;2023-03-01T06:45:52;0.60;99.90
7427;DHT22;3755;59.316;18.092;2023-03-01T06:48:20;0.60;99.90
7427;DHT22;3755;59.316;18.092;2023-03-01T06:50:48;0.60;99.90
7427;DHT22;3755;59.316;18.092;2023-03-01T06:53:20;0.70;99.90
7427;DHT22;3755;59.316;18.092;2023-03-01T06:56:02;0.60;99.90
7427;DHT22;3755;59.316;18.092;2023-03-01T06:58:45;0.50;99.90
7427;DHT22;3755;59.316;18.092;2023-03-01T07:01:30;1.20;99.90
7427;DHT22;3755;59.316;18.092;2023-03-01T07:04:31;0.90;99.90
7427;DHT22;3755;59.316;18.092;2023-03-01T07:07:12;0.70;99.90
7427;DHT22;3755;59.316;18.092;2023-03-01T07:13:26;1.20;99.90
7427;DHT22;3755;59.316;18.092;2023-03-01T07:16:38;1.20;99.90
7427;DHT22;3755;59.316;18.092;2023-03-01T07:22:42;1.40;99.90
7427;DHT22;3755;59.316;18.092;2023-03-01T07:25:55;1.40;99.90
7427;DHT22;3755;59.316;18.092;2023-03-01T07:29:34;1.50;99.90
7427;DHT22;3755;59.316;18.092;2023-03-01T07:32:19;1.50;99.90
7427;DHT22;3755;59.316;18.092;2023-03-01T07:35:05;1.40;99.90
7427;DHT22;3755;59.316;18.092;2023-03-01T07:40:34;1.50;99.90
7427;DHT22;3755;59.316;18.092;2023-03-01T07:43:25;1.50;99.90
7427;DHT22;3755;59.316;18.092;2023-03-01T07:49:42;1.50;99.90
7427;DHT22;3755;59.316;18.092;2023-03-01T07:52:28;1.60;99.90
7427;DHT22;3755;59.316;18.092;2023-03-01T07:58:35;1.70;99.90
7427;DHT22;3755;59.316;18.092;2023-03-01T08:01:21;1.80;99.90
7427;DHT22;3755;59.316;18.092;2023-03-01T08:04:04;1.90;99.90
7427;DHT22;3755;59.316;18.092;2023-03-01T08:07:06;1.90;99.90
7427;DHT22;3755;59.316;18.092;2023-03-01T08:09:54;2.10;99.90
7427;DHT22;3755;59.316;18.092;2023-03-01T08:12:40;2.10;99.90
7427;DHT22;3755;59.316;18.092;2023-03-01T08:15:10;2.20;99.90
7427;DHT22;3755;59.316;18.092;2023-03-01T08:17:41;2.20;99.90
7427;DHT22;3755;59.316;18.092;2023-03-01T08:20:12;2.30;99.90
7427;DHT22;3755;59.316;18.092;2023-03-01T08:22:41;2.40;99.90
7427;DHT22;3755;59.316;18.092;2023-03-01T08:25:23;2.30;99.90
7427;DHT22;3755;59.316;18.092;2023-03-01T08:27:51;2.40;99.90
7427;DHT22;3755;59.316;18.092;2023-03-01T08:30:19;2.50;99.90
7427;DHT22;3755;59.316;18.092;2023-03-01T08:32:50;2.50;99.90
7427;DHT22;3755;59.316;18.092;2023-03-01T08:35:26;2.60;99.90
7427;DHT22;3755;59.316;18.092;2023-03-01T08:37:57;2.70;99.90
7427;DHT22;3755;59.316;18.092;2023-03-01T08:40:27;2.70;99.90
7427;DHT22;3755;59.316;18.092;2023-03-01T08:42:55;2.70;99.90
7427;DHT22;3755;59.316;18.092;2023-03-01T08:45:25;2.80;99.90
7427;DHT22;3755;59.316;18.092;2023-03-01T08:47:57;2.90;99.90
7427;DHT22;3755;59.316;18.092;2023-03-01T08:50:26;2.90;99.90
7427;DHT22;3755;59.316;18.092;2023-03-01T08:53:31;3.00;99.90
7427;DHT22;3755;59.316;18.092;2023-03-01T08:56:25;3.10;99.90
7427;DHT22;3755;59.316;18.092;2023-03-01T08:59:25;3.30;99.90
7427;DHT22;3755;59.316;18.092;2023-03-01T09:01:56;3.40;99.90
7427;DHT22;3755;59.316;18.092;2023-03-01T09:04:26;3.40;99.90
7427;DHT22;3755;59.316;18.092;2023-03-01T09:07:09;3.50;99.90
7427;DHT22;3755;59.316;18.092;2023-03-01T09:09:45;3.70;99.90
7427;DHT22;3755;59.316;18.092;2023-03-01T09:12:34;3.60;99.90
7427;DHT22;3755;59.316;18.092;2023-03-01T09:15:15;3.60;99.90
7427;DHT22;3755;59.316;18.092;2023-03-01T09:17:45;3.70;99.90
7427;DHT22;3755;59.316;18.092;2023-03-01T09:20:34;3.70;99.90
7427;DHT22;3755;59.316;18.092;2023-03-01T09:23:15;3.70;99.90
7427;DHT22;3755;59.316;18.092;2023-03-01T09:26:03;3.80;99.90
7427;DHT22;3755;59.316;18.092;2023-03-01T09:28:39;4.00;99.90
7427;DHT22;3755;59.316;18.092;2023-03-01T09:31:07;4.10;99.90
7427;DHT22;3755;59.316;18.092;2023-03-01T09:33:50;4.10;99.90
7427;DHT22;3755;59.316;18.092;2023-03-01T09:36:23;4.20;99.90
7427;DHT22;3755;59.316;18.092;2023-03-01T09:39:08;4.30;99.90
7427;DHT22;3755;59.316;18.092;2023-03-01T09:41:57;4.40;99.90
7427;DHT22;3755;59.316;18.092;2023-03-01T09:44:35;4.50;99.90
7427;DHT22;3755;59.316;18.092;2023-03-01T09:47:17;4.40;99.90
7427;DHT22;3755;59.316;18.092;2023-03-01T09:50:01;4.50;99.90
7427;DHT22;3755;59.316;18.092;2023-03-01T09:52:34;4.60;99.90
7427;DHT22;3755;59.316;18.092;2023-03-01T09:55:09;4.60;99.90
7427;DHT22;3755;59.316;18.092;2023-03-01T09:58:06;4.60;99.90
7427;DHT22;3755;59.316;18.092;2023-03-01T10:00:44;4.70;99.90
7427;DHT22;3755;59.316;18.092;2023-03-01T10:03:26;4.70;99.90
7427;DHT22;3755;59.316;18.092;2023-03-01T10:06:01;4.70;99.90
7427;DHT22;3755;59.316;18.092;2023-03-01T10:08:34;4.70;99.90
7427;DHT22;3755;59.316;18.092;2023-03-01T10:11:12;4.70;99.90
7427;DHT22;3755;59.316;18.092;2023-03-01T10:13:52;4.70;99.90
7427;DHT22;3755;59.316;18.092;2023-03-01T10:16:33;4.80;99.90
7427;DHT22;3755;59.316;18.092;2023-03-01T10:19:04;4.90;99.90
7427;DHT22;3755;59.316;18.092;2023-03-01T10:21:38;5.00;99.90
7427;DHT22;3755;59.316;18.092;2023-03-01T10:24:16;5.30;99.90
7427;DHT22;3755;59.316;18.092;2023-03-01T10:26:53;5.10;99.90
7427;DHT22;3755;59.316;18.092;2023-03-01T10:29:28;5.10;99.90
7427;DHT22;3755;59.316;18.092;2023-03-01T10:31:58;5.10;99.90
7427;DHT22;3755;59.316;18.092;2023-03-01T10:34:35;5.10;99.90
7427;DHT22;3755;59.316;18.092;2023-03-01T10:37:10;5.10;99.90
7427;DHT22;3755;59.316;18.092;2023-03-01T10:40:09;5.10;99.90
7427;DHT22;3755;59.316;18.092;2023-03-01T10:42:47;5.10;99.90
7427;DHT22;3755;59.316;18.092;2023-03-01T10:45:35;5.20;99.90
7427;DHT22;3755;59.316;18.092;2023-03-01T10:48:12;5.30;99.90
7427;DHT22;3755;59.316;18.092;2023-03-01T10:50:46;5.10;99.90
7427;DHT22;3755;59.316;18.092;2023-03-01T10:53:24;5.20;99.90
7427;DHT22;3755;59.316;18.092;2023-03-01T10:56:08;5.50;99.90
7427;DHT22;3755;59.316;18.092;2023-03-01T10:58:38;5.50;99.90
7427;DHT22;3755;59.316;18.092;2023-03-01T11:01:25;5.80;99.90
7427;DHT22;3755;59.316;18.092;2023-03-01T11:04:11;5.60;99.90
7427;DHT22;3755;59.316;18.092;2023-03-01T11:06:40;5.60;99.90
7427;DHT22;3755;59.316;18.092;2023-03-01T11:09:15;5.50;99.90
7427;DHT22;3755;59.316;18.092;2023-03-01T11:12:00;5.60;99.90
7427;DHT22;3755;59.316;18.092;2023-03-01T11:14:35;5.60;99.90
7427;DHT22;3755;59.316;18.092;2023-03-01T11:17:17;5.60;99.90
7427;DHT22;3755;59.316;18.092;2023-03-01T11:20:07;5.70;99.90
7427;DHT22;3755;59.316;18.092;2023-03-01T11:22:46;5.70;99.90
7427;DHT22;3755;59.316;18.092;2023-03-01T11:25:15;5.80;99.90
7427;DHT22;3755;59.316;18.092;2023-03-01T11:28:00;6.00;99.90
7427;DHT22;3755;59.316;18.092;2023-03-01T11:30:32;5.90;99.90
7427;DHT22;3755;59.316;18.092;2023-03-01T11:33:15;5.90;99.90
7427;DHT22;3755;59.316;18.092;2023-03-01T11:35:49;6.00;99.90
7427;DHT22;3755;59.316;18.092;2023-03-01T11:38:22;6.00;99.90
7427;DHT22;3755;59.316;18.092;2023-03-01T11:40:59;6.10;99.90
7427;DHT22;3755;59.316;18.092;2023-03-01T11:43:36;6.10;99.90
7427;DHT22;3755;59.316;18.092;2023-03-01T11:50:04;6.10;99.90
7427;DHT22;3755;59.316;18.092;2023-03-01T11:52:56;6.20;99.90
7427;DHT22;3755;59.316;18.092;2023-03-01T11:55:51;6.20;99.90
7427;DHT22;3755;59.316;18.092;2023-03-01T11:58:43;6.30;99.90
7427;DHT22;3755;59.316;18.092;2023-03-01T12:01:36;6.50;99.90
7427;DHT22;3755;59.316;18.092;2023-03-01T12:04:38;6.40;99.90
7427;DHT22;3755;59.316;18.092;2023-03-01T12:07:25;6.40;99.90
7427;DHT22;3755;59.316;18.092;2023-03-01T12:10:20;6.50;99.90
7427;DHT22;3755;59.316;18.092;2023-03-01T12:13:23;6.60;99.90
7427;DHT22;3755;59.316;18.092;2023-03-01T12:16:20;6.70;99.90
7427;DHT22;3755;59.316;18.092;2023-03-01T12:19:17;6.60;99.90
7427;DHT22;3755;59.316;18.092;2023-03-01T12:22:11;6.60;99.90
7427;DHT22;3755;59.316;18.092;2023-03-01T12:25:02;6.60;99.90
7427;DHT22;3755;59.316;18.092;2023-03-01T12:27:58;6.60;99.90
7427;DHT22;3755;59.316;18.092;2023-03-01T12:30:42;6.70;99.90
7427;DHT22;3755;59.316;18.092;2023-03-01T12:33:36;6.80;99.90
7427;DHT22;3755;59.316;18.092;2023-03-01T12:36:33;6.70;99.90
7427;DHT22;3755;59.316;18.092;2023-03-01T12:39:13;6.70;99.90
7427;DHT22;3755;59.316;18.092;2023-03-01T12:45:30;6.80;99.90
7427;DHT22;3755;59.316;18.092;2023-03-01T12:48:36;6.80;99.90
7427;DHT22;3755;59.316;18.092;2023-03-01T12:51:24;6.80;99.90
7427;DHT22;3755;59.316;18.092;2023-03-01T12:53:55;6.90;99.90
7427;DHT22;3755;59.316;18.092;2023-03-01T12:56:36;6.90;99.90
7427;DHT22;3755;59.316;18.092;2023-03-01T12:59:13;7.00;99.90
7427;DHT22;3755;59.316;18.092;2023-03-01T13:01:49;7.00;99.80
7427;DHT22;3755;59.316;18.092;2023-03-01T13:04:30;7.00;99.70
7427;DHT22;3755;59.316;18.092;2023-03-01T13:07:23;7.00;99.90
7427;DHT22;3755;59.316;18.092;2023-03-01T13:09:59;7.00;99.70
7427;DHT22;3755;59.316;18.092;2023-03-01T13:12:52;7.30;99.90
7427;DHT22;3755;59.316;18.092;2023-03-01T13:15:35;7.20;99.80
7427;DHT22;3755;59.316;18.092;2023-03-01T13:18:35;7.30;99.50
7427;DHT22;3755;59.316;18.092;2023-03-01T13:21:03;7.20;99.60
7427;DHT22;3755;59.316;18.092;2023-03-01T13:23:37;7.30;99.60
7427;DHT22;3755;59.316;18.092;2023-03-01T13:26:09;7.40;99.50
7427;DHT22;3755;59.316;18.092;2023-03-01T13:28:53;7.40;99.40
7427;DHT22;3755;59.316;18.092;2023-03-01T13:34:50;7.50;99.40
7427;DHT22;3755;59.316;18.092;2023-03-01T13:37:29;7.50;99.10
7427;DHT22;3755;59.316;18.092;2023-03-01T13:39:59;7.60;99.10
7427;DHT22;3755;59.316;18.092;2023-03-01T13:42:43;7.80;98.90
7427;DHT22;3755;59.316;18.092;2023-03-01T13:45:20;8.20;98.10
7427;DHT22;3755;59.316;18.092;2023-03-01T13:48:04;8.20;97.80
7427;DHT22;3755;59.316;18.092;2023-03-01T13:50:45;8.20;97.90
7427;DHT22;3755;59.316;18.092;2023-03-01T13:53:17;8.30;97.50
7427;DHT22;3755;59.316;18.092;2023-03-01T13:55:47;8.10;97.70
7427;DHT22;3755;59.316;18.092;2023-03-01T13:58:21;7.80;97.90
7427;DHT22;3755;59.316;18.092;2023-03-01T14:00:56;7.70;98.10
7427;DHT22;3755;59.316;18.092;2023-03-01T14:03:29;7.70;98.20
7427;DHT22;3755;59.316;18.092;2023-03-01T14:06:02;7.60;98.30
7427;DHT22;3755;59.316;18.092;2023-03-01T14:08:34;7.70;98.40
7427;DHT22;3755;59.316;18.092;2023-03-01T14:17:16;7.70;98.30
7427;DHT22;3755;59.316;18.092;2023-03-01T14:19:56;7.80;98.20
7427;DHT22;3755;59.316;18.092;2023-03-01T14:22:27;8.00;98.10
7427;DHT22;3755;59.316;18.092;2023-03-01T14:24:57;8.00;97.90
7427;DHT22;3755;59.316;18.092;2023-03-01T14:27:27;8.00;97.90
7427;DHT22;3755;59.316;18.092;2023-03-01T14:29:56;7.90;97.90
7427;DHT22;3755;59.316;18.092;2023-03-01T14:32:27;8.00;97.90
7427;DHT22;3755;59.316;18.092;2023-03-01T14:34:56;8.10;98.00
7427;DHT22;3755;59.316;18.092;2023-03-01T14:37:29;8.00;98.00
7427;DHT22;3755;59.316;18.092;2023-03-01T14:40:22;8.00;97.70
7427;DHT22;3755;59.316;18.092;2023-03-01T14:43:11;8.00;97.70
7427;DHT22;3755;59.316;18.092;2023-03-01T14:45:57;7.90;97.70
7427;DHT22;3755;59.316;18.092;2023-03-01T14:48:41;7.90;97.80
7427;DHT22;3755;59.316;18.092;2023-03-01T14:51:11;7.90;98.10
7427;DHT22;3755;59.316;18.092;2023-03-01T14:53:46;7.90;97.80
7427;DHT22;3755;59.316;18.092;2023-03-01T14:56:23;7.90;98.00
7427;DHT22;3755;59.316;18.092;2023-03-01T14:58:52;8.00;98.00
7427;DHT22;3755;59.316;18.092;2023-03-01T15:01:23;8.00;97.90
7427;DHT22;3755;59.316;18.092;2023-03-01T15:03:52;7.90;97.90
7427;DHT22;3755;59.316;18.092;2023-03-01T15:06:22;7.90;98.00
7427;DHT22;3755;59.316;18.092;2023-03-01T15:09:01;7.90;97.80
7427;DHT22;3755;59.316;18.092;2023-03-01T15:11:31;7.90;97.80
7427;DHT22;3755;59.316;18.092;2023-03-01T15:13:59;7.80;97.90
7427;DHT22;3755;59.316;18.092;2023-03-01T15:16:46;7.80;98.00
7427;DHT22;3755;59.316;18.092;2023-03-01T15:20:15;7.80;97.80
7427;DHT22;3755;59.316;18.092;2023-03-01T15:23:12;7.80;97.80
7427;DHT22;3755;59.316;18.092;2023-03-01T15:26:23;7.80;97.80
7427;DHT22;3755;59.316;18.092;2023-03-01T15:28:58;7.70;97.80
7427;DHT22;3755;59.316;18.092;2023-03-01T15:31:40;7.70;98.10
7427;DHT22;3755;59.316;18.092;2023-03-01T15:34:21;7.70;97.80
7427;DHT22;3755;59.316;18.092;2023-03-01T15:36:50;7.70;97.90
7427;DHT22;3755;59.316;18.092;2023-03-01T15:39:36;7.70;97.80
7427;DHT22;3755;59.316;18.092;2023-03-01T15:42:10;7.70;97.80
7427;DHT22;3755;59.316;18.092;2023-03-01T15:45:08;7.70;97.80
7427;DHT22;3755;59.316;18.092;2023-03-01T15:47:39;7.70;97.80
7427;DHT22;3755;59.316;18.092;2023-03-01T15:50:24;7.60;97.90
7427;DHT22;3755;59.316;18.092;2023-03-01T15:52:52;7.60;97.80
7427;DHT22;3755;59.316;18.092;2023-03-01T15:55:22;7.60;97.90
7427;DHT22;3755;59.316;18.092;2023-03-01T15:57:57;7.60;97.90
7427;DHT22;3755;59.316;18.092;2023-03-01T16:00:39;7.60;97.90
7427;DHT22;3755;59.316;18.092;2023-03-01T16:03:12;7.60;98.00
7427;DHT22;3755;59.316;18.092;2023-03-01T16:05:39;7.60;98.00
7427;DHT22;3755;59.316;18.092;2023-03-01T16:08:07;7.50;98.00
7427;DHT22;3755;59.316;18.092;2023-03-01T16:10:35;7.50;97.90
7427;DHT22;3755;59.316;18.092;2023-03-01T16:13:04;7.50;98.00
7427;DHT22;3755;59.316;18.092;2023-03-01T16:15:46;7.50;98.00
7427;DHT22;3755;59.316;18.092;2023-03-01T16:18:17;7.40;98.10
7427;DHT22;3755;59.316;18.092;2023-03-01T16:20:44;7.40;98.20
7427;DHT22;3755;59.316;18.092;2023-03-01T16:23:13;7.40;98.30
7427;DHT22;3755;59.316;18.092;2023-03-01T16:25:43;7.40;98.30
7427;DHT22;3755;59.316;18.092;2023-03-01T16:28:19;7.40;98.40
7427;DHT22;3755;59.316;18.092;2023-03-01T16:30:47;7.40;98.50
7427;DHT22;3755;59.316;18.092;2023-03-01T16:33:19;7.40;98.50
7427;DHT22;3755;59.316;18.092;2023-03-01T16:35:47;7.40;98.60
7427;DHT22;3755;59.316;18.092;2023-03-01T16:38:20;7.30;98.50
7427;DHT22;3755;59.316;18.092;2023-03-01T16:40:50;7.30;98.60
7427;DHT22;3755;59.316;18.092;2023-03-01T16:43:27;7.30;98.60
7427;DHT22;3755;59.316;18.092;2023-03-01T16:46:10;7.30;98.70
7427;DHT22;3755;59.316;18.092;2023-03-01T16:48:40;7.30;98.80
7427;DHT22;3755;59.316;18.092;2023-03-01T16:51:08;7.30;98.80
7427;DHT22;3755;59.316;18.092;2023-03-01T16:53:36;7.30;98.80
7427;DHT22;3755;59.316;18.092;2023-03-01T16:56:06;7.30;98.90
7427;DHT22;3755;59.316;18.092;2023-03-01T16:58:39;7.30;98.80
7427;DHT22;3755;59.316;18.092;2023-03-01T17:01:09;7.30;98.80
7427;DHT22;3755;59.316;18.092;2023-03-01T17:03:37;7.30;98.80
7427;DHT22;3755;59.316;18.092;2023-03-01T17:06:09;7.30;98.70
7427;DHT22;3755;59.316;18.092;2023-03-01T17:08:38;7.30;98.70
7427;DHT22;3755;59.316;18.092;2023-03-01T17:11:07;7.30;98.70
7427;DHT22;3755;59.316;18.092;2023-03-01T17:13:42;7.30;98.80
7427;DHT22;3755;59.316;18.092;2023-03-01T17:16:25;7.30;98.80
7427;DHT22;3755;59.316;18.092;2023-03-01T17:18:53;7.30;98.80
7427;DHT22;3755;59.316;18.092;2023-03-01T17:21:29;7.30;98.90
7427;DHT22;3755;59.316;18.092;2023-03-01T17:23:58;7.30;99.10
7427;DHT22;3755;59.316;18.092;2023-03-01T17:26:26;7.20;99.10
7427;DHT22;3755;59.316;18.092;2023-03-01T17:29:09;7.30;99.30